Time;durP1;ratioP1;P1;durP2;ratioP2;P2;SDS_P1;SDS_P2;PMS_P1;PMS_P2;Temp;Humidity;BMP_temperature;BMP_pressure;BME280_temperature;BME280_humidity;BME280_pressure;Samples;Min_cycle;Max_cycle;Signal;HPM_P1;HPM_P2
2021/08/01 00:02:07;;;;;;;5.60;5.00;;;17.10;58.00;;;16.19;64.81;97229.63;4963125;29;20505;-81
2021/08/01 00:04:34;;;;;;;7.73;4.83;;;17.10;58.10;;;15.90;65.31;97180.31;4977462;28;20510;-81
2021/08/01 00:07:06;;;;;;;5.63;5.13;;;17.10;58.20;;;16.05;65.37;97223.91;4987593;28;20467;-81
2021/08/01 00:09:33;;;;;;;7.00;4.83;;;17.00;58.30;;;15.95;65.95;97213.00;4983960;28;20456;-81
2021/08/01 00:12:00;;;;;;;5.70;4.80;;;17.00;58.50;;;15.98;65.96;97213.28;4982952;28;20512;-81
2021/08/01 00:14:28;;;;;;;5.20;4.73;;;16.90;58.50;;;15.88;65.76;97207.78;4983672;28;20532;-82
2021/08/01 00:16:58;;;;;;;5.60;5.07;;;16.80;58.60;;;15.97;66.13;97219.81;4971888;28;20480;-81
2021/08/01 00:19:26;;;;;;;5.30;4.90;;;16.80;58.70;;;15.88;66.69;97207.78;4959397;28;20439;-82
2021/08/01 00:21:53;;;;;;;6.47;5.03;;;16.70;58.70;;;15.82;66.22;97209.66;4983996;28;20453;-84
2021/08/01 00:24:22;;;;;;;5.40;4.60;;;16.70;58.70;;;15.82;66.25;97196.06;4983430;28;20465;-84
2021/08/01 00:26:49;;;;;;;5.90;5.10;;;16.80;58.90;;;15.90;67.49;97210.28;4987133;28;20528;-83
2021/08/01 00:29:16;;;;;;;5.90;5.30;;;16.70;59.20;;;15.89;67.89;97211.34;4967282;28;20553;-82
2021/08/01 00:31:45;;;;;;;6.67;5.00;;;16.70;59.90;;;15.79;69.07;97182.97;4977154;28;20466;-83
2021/08/01 00:34:12;;;;;;;5.70;5.10;;;16.70;60.20;;;15.82;67.64;97187.88;4956732;28;20454;-82
2021/08/01 00:36:40;;;;;;;9.23;4.60;;;16.70;60.10;;;15.76;67.92;97194.41;4977527;28;20476;-82
2021/08/01 00:39:09;;;;;;;6.30;5.67;;;16.70;59.90;;;15.65;68.57;97171.81;4974755;28;20500;-83
2021/08/01 00:41:36;;;;;;;4.87;4.47;;;16.60;60.30;;;15.81;70.05;97199.06;4982374;28;20445;-82
2021/08/01 00:44:05;;;;;;;6.30;5.67;;;16.60;61.10;;;15.81;69.95;97205.31;4970440;28;20472;-81
2021/08/01 00:46:32;;;;;;;4.83;4.43;;;16.60;61.70;;;15.79;70.22;97193.88;4968137;28;20485;-84
2021/08/01 00:49:02;;;;;;;7.23;5.13;;;16.60;62.40;;;15.79;70.84;97193.88;4983356;28;20528;-82
2021/08/01 00:51:30;;;;;;;4.93;4.50;;;16.60;62.70;;;15.30;70.87;97119.72;4981805;28;20456;-82
2021/08/01 00:54:00;;;;;;;5.80;5.30;;;16.60;63.00;;;15.76;70.87;97201.75;4983438;28;20466;-81
2021/08/01 00:56:27;;;;;;;7.63;5.90;;;16.60;63.40;;;15.70;70.56;97203.69;4996877;28;20456;-83
2021/08/01 00:58:55;;;;;;;7.30;5.13;;;16.60;63.20;;;15.61;70.54;97192.47;4968155;28;20515;-81
2021/08/01 01:01:29;;;;;;;7.33;5.13;;;16.50;62.80;;;15.60;71.06;97198.19;4967189;28;20477;-81
2021/08/01 01:04:09;;;;;;;8.67;5.20;;;16.50;63.40;;;15.65;72.77;97209.91;4986438;28;20479;-83
2021/08/01 01:06:50;;;;;;;5.80;5.27;;;16.50;65.00;;;15.62;74.22;97209.63;4946878;28;20444;-83
2021/08/01 01:09:30;;;;;;;6.57;5.60;;;16.50;66.60;;;15.70;75.51;97222.75;4980965;28;20467;-83
2021/08/01 01:12:03;;;;;;;6.57;5.97;;;16.60;68.70;;;15.64;75.67;97207.44;4979785;28;20461;-82
2021/08/01 01:14:35;;;;;;;6.03;5.50;;;16.60;70.10;;;15.69;76.58;97221.06;4982727;28;20441;-82
2021/08/01 01:17:05;;;;;;;9.23;5.57;;;16.60;71.70;;;15.66;77.39;97224.34;4993610;28;20460;-84
2021/08/01 01:20:06;;;;;;;8.43;6.10;;;16.50;72.50;;;15.64;77.31;97227.34;4998357;28;20516;-81
2021/08/01 01:22:41;;;;;;;7.50;6.80;;;16.50;74.50;;;15.63;77.91;97233.03;4963211;28;20468;-83
2021/08/01 01:25:19;;;;;;;8.77;6.47;;;16.50;76.20;;;15.60;78.94;97228.16;4985819;28;20472;-81
2021/08/01 01:27:53;;;;;;;7.50;6.63;;;16.60;79.30;;;15.65;79.62;97249.94;4988966;28;20488;-83
2021/08/01 01:30:22;;;;;;;8.33;7.53;;;16.50;82.10;;;15.09;79.50;97169.69;4995872;28;20484;-82
2021/08/01 01:32:55;;;;;;;9.20;6.37;;;16.50;82.90;;;15.13;80.62;97176.28;4982682;28;20548;-82
2021/08/01 01:35:23;;;;;;;7.80;7.00;;;16.50;84.90;;;15.61;79.12;97224.34;4984164;28;20463;-82
2021/08/01 01:37:55;;;;;;;6.77;6.17;;;16.60;84.60;;;15.92;78.33;97251.69;4987728;28;20484;-82
2021/08/01 01:40:27;;;;;;;8.77;6.37;;;16.70;84.20;;;15.71;77.85;97237.97;4967018;28;20512;-81
2021/08/01 01:45:42;;;;;;;6.63;6.03;;;16.70;84.10;;;15.77;76.83;97253.25;4963790;28;21136;-83
2021/08/01 01:48:11;;;;;;;7.13;6.53;;;16.60;82.80;;;15.71;77.16;97235.25;4970135;28;20862;-82
2021/08/01 01:50:47;;;;;;;9.30;6.63;;;16.70;83.20;;;15.83;79.54;97262.25;4987139;28;20484;-83
2021/08/01 01:53:19;;;;;;;8.60;7.80;;;16.70;85.80;;;15.64;79.98;97245.56;4958877;28;20452;-81
2021/08/01 01:55:47;;;;;;;7.13;6.50;;;16.60;86.90;;;15.68;78.92;97233.88;4972275;28;20460;-83
2021/08/01 01:58:15;;;;;;;7.93;7.00;;;16.60;86.10;;;15.92;78.79;97246.22;4996445;28;20449;-83
2021/08/01 02:00:42;;;;;;;9.20;8.00;;;16.70;86.40;;;15.98;78.04;97242.41;4995102;28;20441;-82
2021/08/01 02:03:10;;;;;;;9.30;8.40;;;16.70;86.10;;;15.94;79.21;97238.59;4996463;28;20456;-82
2021/08/01 02:05:37;;;;;;;9.50;7.70;;;16.80;87.20;;;15.90;79.06;97238.31;4992270;28;20477;-81
2021/08/01 02:08:05;;;;;;;7.33;6.40;;;16.80;87.10;;;15.86;78.84;97238.03;4979890;28;20480;-80
2021/08/01 02:10:38;;;;;;;8.40;7.23;;;16.80;86.80;;;15.78;78.87;97219.47;4969811;28;20481;-80
2021/08/01 02:13:08;;;;;;;9.03;8.13;;;16.80;86.60;;;15.94;78.33;97242.16;4971784;28;20472;-81
2021/08/01 02:15:48;;;;;;;8.10;7.40;;;16.70;86.30;;;15.89;78.90;97236.69;4979232;28;20449;-83
2021/08/01 02:18:24;;;;;;;8.60;7.80;;;16.70;87.10;;;15.85;79.03;97239.13;4969014;28;20895;-83
2021/08/01 02:20:56;;;;;;;9.90;8.10;;;16.60;87.00;;;15.71;79.00;97219.72;4978242;28;20512;-82
2021/08/01 02:23:26;;;;;;;9.67;8.67;;;16.60;87.00;;;15.73;80.15;97233.09;4962843;28;20457;-82
2021/08/01 02:25:57;;;;;;;10.43;9.13;;;16.70;88.50;;;15.60;81.37;97228.16;4976625;28;20997;-82
2021/08/01 02:28:28;;;;;;;9.20;8.40;;;16.50;90.00;;;15.25;80.85;97195.91;4966384;28;20457;-82
2021/08/01 02:30:56;;;;;;;9.57;8.57;;;16.40;88.60;;;15.55;81.32;97237.94;4979407;28;20483;-84
2021/08/01 02:33:28;;;;;;;9.70;7.43;;;16.40;90.00;;;15.62;80.62;97231.41;4984554;28;20445;-83
2021/08/01 02:36:02;;;;;;;11.40;7.50;;;16.40;90.00;;;15.49;81.46;97228.09;4953642;28;20513;-82
2021/08/01 02:38:34;;;;;;;10.50;8.60;;;16.40;90.60;;;15.06;81.97;97187.38;4984107;28;20468;-80
2021/08/01 02:41:11;;;;;;;10.07;8.67;;;16.30;90.80;;;14.77;82.56;97168.75;4977867;28;20557;-81
2021/08/01 02:43:44;;;;;;;9.40;8.60;;;16.10;91.50;;;14.91;82.95;97212.59;4974283;28;20453;-82
2021/08/01 02:46:12;;;;;;;10.83;9.30;;;15.90;91.80;;;14.24;84.31;97117.81;4994397;28;20565;-82
2021/08/01 02:48:40;;;;;;;12.03;10.30;;;15.80;93.30;;;14.83;85.65;97202.22;4984153;28;20513;-83
2021/08/01 02:51:09;;;;;;;9.77;8.83;;;15.80;95.80;;;15.06;84.76;97230.91;4962992;28;20533;-83
2021/08/01 02:53:49;;;;;;;9.80;8.80;;;15.80;95.80;;;15.16;83.85;97227.41;4986690;28;20505;-79
2021/08/01 02:56:21;;;;;;;11.43;9.33;;;15.90;94.90;;;15.23;84.02;97227.97;4966979;28;20540;-80
2021/08/01 02:58:51;;;;;;;9.00;8.17;;;16.00;94.20;;;15.26;83.63;97213.03;4990384;28;20492;-80
2021/08/01 03:01:18;;;;;;;11.30;8.90;;;16.10;94.40;;;15.14;83.24;97186.06;4983588;28;20525;-80
2021/08/01 03:03:47;;;;;;;8.53;7.93;;;16.10;94.60;;;15.32;83.44;97227.50;4959405;28;20460;-79
2021/08/01 03:06:16;;;;;;;10.77;9.93;;;16.10;94.60;;;14.98;84.77;97196.03;4980741;28;20477;-81
2021/08/01 03:08:44;;;;;;;10.63;9.70;;;16.10;95.30;;;15.10;85.31;97214.88;4971394;28;20468;-80
2021/08/01 03:11:21;;;;;;;11.40;9.50;;;16.00;95.50;;;15.15;84.52;97223.88;4982253;28;21006;-81
2021/08/01 03:13:49;;;;;;;10.60;9.60;;;16.00;95.10;;;15.21;84.58;97222.00;4980063;28;20452;-83
2021/08/01 03:16:18;;;;;;;9.53;8.60;;;16.00;95.00;;;15.26;83.42;97224.75;4973849;28;20457;-81
2021/08/01 03:18:45;;;;;;;11.27;10.27;;;16.00;94.40;;;15.13;85.08;97222.50;4993978;28;20449;-82
2021/08/01 03:21:13;;;;;;;10.83;9.87;;;16.10;95.50;;;14.52;85.29;97166.66;4989636;28;20444;-80
2021/08/01 03:23:40;;;;;;;10.67;9.70;;;15.80;95.40;;;14.85;84.57;97202.78;4979971;28;20468;-80
2021/08/01 03:26:09;;;;;;;10.60;9.60;;;15.70;96.30;;;14.95;85.20;97218.34;4963803;28;20945;-80
2021/08/01 03:28:38;;;;;;;10.63;9.53;;;15.70;95.80;;;14.76;84.30;97215.22;4985938;28;20476;-80
2021/08/01 03:31:05;;;;;;;10.40;9.40;;;15.60;94.70;;;14.60;85.68;97209.66;4980676;28;20584;-80
2021/08/01 03:33:32;;;;;;;10.37;9.37;;;15.50;96.10;;;14.48;84.64;97204.41;4971935;28;21059;-81
2021/08/01 03:35:59;;;;;;;10.07;9.23;;;15.40;95.90;;;14.43;85.08;97204.38;4969796;28;20461;-81
2021/08/01 03:38:26;;;;;;;10.60;9.37;;;15.30;95.70;;;14.43;85.64;97207.09;4984970;28;20544;-81
2021/08/01 03:40:53;;;;;;;9.47;8.47;;;15.30;96.60;;;14.25;84.81;97197.44;4965822;28;20489;-80
2021/08/01 03:43:20;;;;;;;9.57;8.80;;;15.20;95.20;;;14.24;84.91;97193.09;4976958;28;20457;-80
2021/08/01 03:45:51;;;;;;;12.20;8.40;;;15.10;95.60;;;14.10;85.41;97182.66;4952773;28;20476;-79
2021/08/01 03:48:19;;;;;;;9.73;8.83;;;15.10;95.80;;;14.14;85.54;97200.06;4950990;28;20456;-82
2021/08/01 03:50:46;;;;;;;12.53;9.57;;;15.10;96.10;;;14.12;87.00;97202.22;4976882;28;20504;-81
2021/08/01 03:53:13;;;;;;;10.33;9.33;;;15.00;98.90;;;13.84;86.38;97163.41;4984901;28;20457;-80
2021/08/01 03:55:40;;;;;;;11.50;10.50;;;14.90;96.70;;;14.03;89.12;97192.94;4983210;28;20531;-80
2021/08/01 03:58:07;;;;;;;11.87;10.80;;;14.90;99.90;;;13.83;89.15;97178.06;4981453;28;20450;-81
2021/08/01 04:00:35;;;;;;;11.23;9.97;;;14.90;99.90;;;13.66;88.18;97155.66;4980896;28;20463;-80
2021/08/01 04:03:07;;;;;;;8.47;7.77;;;14.80;99.90;;;13.70;87.43;97176.59;4963290;28;20478;-80
2021/08/01 04:05:36;;;;;;;10.53;9.50;;;14.70;99.00;;;13.85;89.35;97203.06;4975376;28;20471;-80
2021/08/01 04:08:03;;;;;;;10.50;9.40;;;14.80;99.90;;;13.71;88.32;97188.25;4956497;28;20476;-82
2021/08/01 04:10:31;;;;;;;8.43;7.70;;;14.70;99.90;;;13.37;86.90;97153.97;4976849;28;20542;-80
2021/08/01 04:12:58;;;;;;;7.87;7.23;;;14.70;98.10;;;13.55;87.65;97177.25;4981239;28;20582;-82
2021/08/01 04:15:25;;;;;;;11.17;10.10;;;14.60;98.00;;;13.64;88.29;97218.31;4973110;28;20530;-81
2021/08/01 04:17:52;;;;;;;11.87;10.70;;;14.60;99.90;;;13.52;90.15;97175.06;4976732;28;20485;-81
2021/08/01 04:20:21;;;;;;;11.73;10.73;;;14.60;99.90;;;13.70;89.77;97209.16;4987956;28;20466;-81
2021/08/01 04:22:53;;;;;;;10.60;9.80;;;14.70;99.90;;;13.84;89.85;97211.47;4985353;28;20453;-82
2021/08/01 04:25:20;;;;;;;9.57;8.67;;;14.70;99.90;;;13.73;87.88;97208.66;4983456;28;20476;-81
2021/08/01 04:27:48;;;;;;;9.00;8.17;;;14.70;99.90;;;13.83;88.41;97216.06;4971873;28;20486;-81
2021/08/01 04:30:16;;;;;;;10.20;8.30;;;14.70;99.90;;;13.79;88.30;97225.81;4983102;28;20536;-80
2021/08/01 04:32:43;;;;;;;13.70;10.30;;;14.70;99.90;;;13.76;89.85;97210.06;4975685;28;20548;-80
2021/08/01 04:35:11;;;;;;;9.67;8.87;;;14.70;99.90;;;13.66;89.72;97205.34;4962539;28;20469;-81
2021/08/01 04:37:42;;;;;;;10.70;9.57;;;14.70;99.90;;;13.82;90.00;97224.50;4979451;28;20461;-81
2021/08/01 04:40:12;;;;;;;10.50;8.97;;;14.70;99.90;;;13.79;89.76;97225.81;4966531;28;20477;-81
2021/08/01 04:42:43;;;;;;;10.90;9.73;;;14.70;99.90;;;13.67;90.59;97217.00;4976303;28;20532;-83
2021/08/01 04:45:11;;;;;;;14.57;9.80;;;14.70;99.90;;;13.78;91.01;97232.31;4980158;28;20579;-81
2021/08/01 04:47:38;;;;;;;8.87;8.07;;;14.70;99.90;;;13.56;88.59;97237.78;4966237;28;20474;-81
2021/08/01 04:50:06;;;;;;;9.87;9.00;;;14.60;98.70;;;13.60;90.88;97234.31;4981015;28;20449;-80
2021/08/01 04:52:33;;;;;;;12.47;10.20;;;14.50;99.90;;;13.60;90.75;97239.75;4983634;28;20488;-81
2021/08/01 04:55:02;;;;;;;14.00;9.47;;;14.50;99.90;;;13.66;90.31;97254.19;4982648;28;20521;-81
2021/08/01 04:57:29;;;;;;;9.37;8.37;;;14.50;99.90;;;13.63;88.12;97249.25;4987696;28;20489;-82
2021/08/01 04:59:57;;;;;;;9.70;8.80;;;14.50;99.90;;;13.51;89.12;97224.97;4958026;28;20962;-82
2021/08/01 05:02:25;;;;;;;9.57;8.70;;;14.50;99.90;;;13.45;89.05;97215.94;4995896;28;20559;-83
2021/08/01 05:04:53;;;;;;;8.47;7.77;;;14.60;99.90;;;13.68;89.36;97245.78;4955370;28;20477;-81
2021/08/01 05:07:20;;;;;;;11.77;10.47;;;14.60;99.90;;;13.14;91.16;97144.22;4960349;28;20442;-82
2021/08/01 05:09:49;;;;;;;10.57;9.47;;;14.70;99.90;;;13.74;90.46;97244.78;4970649;28;20485;-84
2021/08/01 05:12:20;;;;;;;15.10;11.20;;;14.70;99.90;;;13.83;90.15;97247.84;4957432;28;20473;-81
2021/08/01 05:14:49;;;;;;;13.90;12.53;;;14.70;99.90;;;13.91;90.00;97257.44;4964818;28;20454;-83
2021/08/01 05:17:17;;;;;;;15.90;14.50;;;14.80;99.90;;;13.88;90.74;97245.19;4982079;28;20442;-82
2021/08/01 05:19:46;;;;;;;17.70;16.10;;;14.80;99.90;;;13.92;91.69;97245.50;4970133;28;20540;-81
2021/08/01 05:22:14;;;;;;;16.27;14.83;;;14.90;99.90;;;13.93;90.81;97241.72;4973904;28;21014;-81
2021/08/01 05:24:45;;;;;;;15.53;14.27;;;15.00;99.90;;;13.94;90.29;97270.50;4977770;28;20459;-81
2021/08/01 05:27:14;;;;;;;17.07;15.30;;;15.00;99.90;;;13.96;90.38;97269.19;4979845;28;20453;-81
2021/08/01 05:29:44;;;;;;;17.10;15.57;;;15.00;99.90;;;14.08;90.70;97285.31;4973027;28;20473;-81
2021/08/01 05:32:12;;;;;;;16.93;15.40;;;15.00;99.90;;;14.10;90.31;97283.16;4960246;28;20528;-82
2021/08/01 05:34:47;;;;;;;16.03;14.63;;;15.00;99.90;;;14.08;90.11;97279.03;4967157;28;20482;-81
2021/08/01 05:37:14;;;;;;;14.17;12.93;;;15.10;99.90;;;14.22;89.73;97282.19;4977754;28;20823;-81
2021/08/01 05:39:44;;;;;;;13.73;12.57;;;15.10;99.90;;;14.07;88.83;97256.50;4978670;28;20484;-81
2021/08/01 05:42:15;;;;;;;12.80;11.67;;;15.10;99.90;;;14.00;88.97;97267.59;4978158;28;20462;-84
2021/08/01 05:44:43;;;;;;;13.57;12.47;;;15.10;99.90;;;14.20;89.37;97287.06;4997390;28;20453;-84
2021/08/01 05:47:10;;;;;;;13.93;12.53;;;15.10;99.90;;;14.09;89.87;97267.94;5003994;28;20477;-82
2021/08/01 05:49:38;;;;;;;14.17;12.83;;;15.10;99.90;;;14.05;88.70;97276.84;4982061;28;20461;-81
2021/08/01 05:52:06;;;;;;;13.03;11.90;;;15.10;99.90;;;14.13;88.82;97293.50;4951883;29;20478;-80
2021/08/01 05:54:33;;;;;;;13.27;12.20;;;15.10;99.90;;;14.15;88.92;97299.50;4963972;28;20481;-81
2021/08/01 05:57:00;;;;;;;12.57;11.50;;;15.10;99.90;;;14.17;88.81;97297.34;4968883;28;20497;-81
2021/08/01 05:59:27;;;;;;;13.43;12.07;;;15.10;99.90;;;14.24;88.66;97290.91;4992708;28;20449;-82
2021/08/01 06:01:55;;;;;;;12.53;11.20;;;15.10;99.90;;;14.10;87.71;97279.59;4974351;28;20454;-81
2021/08/01 06:04:22;;;;;;;13.60;12.20;;;15.10;99.90;;;13.55;89.06;97188.09;4994355;28;20459;-81
2021/08/01 06:06:51;;;;;;;12.90;11.80;;;15.10;99.90;;;14.10;88.61;97266.84;4982216;28;20473;-81
2021/08/01 06:09:18;;;;;;;13.70;12.40;;;15.10;99.90;;;14.23;88.21;97295.50;4966586;28;20477;-81
2021/08/01 06:11:45;;;;;;;14.53;13.23;;;15.10;99.90;;;14.15;88.43;97272.31;4986959;28;20521;-82
2021/08/01 06:14:12;;;;;;;12.50;11.30;;;15.10;99.90;;;14.36;87.90;97294.28;4983256;28;20517;-81
2021/08/01 06:16:41;;;;;;;11.87;10.67;;;15.20;99.90;;;14.32;87.22;97295.84;4983154;28;20464;-82
2021/08/01 06:19:10;;;;;;;10.80;9.77;;;15.20;99.40;;;13.87;86.42;97200.09;4975309;28;20446;-82
2021/08/01 06:21:37;;;;;;;12.43;11.23;;;15.20;99.60;;;14.35;87.07;97276.34;4976613;28;20493;-82
2021/08/01 06:24:07;;;;;;;12.37;10.47;;;15.30;99.80;;;14.45;87.48;97284.56;4958106;28;20549;-82
2021/08/01 06:26:34;;;;;;;10.80;9.87;;;15.30;99.90;;;14.52;86.07;97291.69;4989318;28;21018;-82
2021/08/01 06:29:02;;;;;;;14.10;9.27;;;15.30;99.40;;;14.47;85.19;97286.19;4978408;28;20449;-82
2021/08/01 06:31:30;;;;;;;9.27;8.57;;;15.40;96.50;;;14.44;85.73;97280.19;4965096;28;20453;-82
2021/08/01 06:33:58;;;;;;;10.93;9.93;;;15.40;96.90;;;14.53;87.50;97277.81;4979059;28;20461;-80
2021/08/01 06:36:26;;;;;;;11.20;10.27;;;15.40;99.60;;;14.64;86.34;97292.34;4992969;28;20462;-82
2021/08/01 06:38:55;;;;;;;11.30;10.30;;;15.50;98.40;;;14.80;86.23;97287.06;4989838;28;20464;-82
2021/08/01 06:41:22;;;;;;;10.67;9.13;;;15.60;99.00;;;14.68;85.50;97268.97;5004809;28;20458;-83
2021/08/01 06:43:49;;;;;;;11.83;9.80;;;15.70;97.40;;;15.03;86.36;97291.28;4988860;28;20453;-82
2021/08/01 06:46:17;;;;;;;9.20;8.37;;;15.80;98.40;;;15.02;83.68;97282.28;4986280;28;20512;-83
2021/08/01 06:48:45;;;;;;;11.10;9.47;;;15.90;94.90;;;14.94;82.52;97265.66;4944264;28;20458;-82
2021/08/01 06:51:12;;;;;;;11.40;10.03;;;16.00;92.80;;;15.23;82.80;97295.22;4968213;28;20469;-81
2021/08/01 06:53:41;;;;;;;10.97;9.80;;;16.10;93.10;;;15.25;82.65;97288.44;4970419;28;20461;-82
2021/08/01 06:56:08;;;;;;;10.63;9.50;;;16.10;93.40;;;15.30;83.62;97299.31;4972650;28;20517;-82
2021/08/01 06:58:37;;;;;;;9.20;8.37;;;16.30;93.60;;;15.16;83.24;97303.59;4981757;28;20462;-82
2021/08/01 07:01:04;;;;;;;9.20;8.40;;;16.20;93.00;;;14.80;82.78;97270.75;4968044;28;20449;-82
2021/08/01 07:03:31;;;;;;;9.83;9.03;;;16.20;91.90;;;15.07;83.21;97286.13;4983899;28;21008;-81
2021/08/01 07:05:58;;;;;;;8.63;7.83;;;16.10;92.60;;;15.35;82.86;97297.72;4977034;28;20461;-82
2021/08/01 07:08:25;;;;;;;10.80;9.77;;;16.20;93.10;;;15.03;83.33;97242.31;4979027;28;20457;-82
2021/08/01 07:10:54;;;;;;;9.93;8.93;;;16.30;93.60;;;15.54;82.87;97296.19;4979557;28;20530;-80
2021/08/01 07:13:21;;;;;;;10.67;9.70;;;16.40;92.80;;;15.68;82.60;97273.91;4977106;28;20453;-82
2021/08/01 07:15:53;;;;;;;9.90;9.00;;;16.60;92.70;;;15.86;82.11;97280.78;4976767;28;20437;-83
2021/08/01 07:18:21;;;;;;;10.23;9.43;;;16.80;92.10;;;16.21;82.35;97297.50;4987366;28;20442;-82
2021/08/01 07:20:49;;;;;;;9.00;8.13;;;17.00;92.90;;;16.27;80.69;97289.06;4966142;28;20461;-83
2021/08/01 07:23:16;;;;;;;7.90;7.20;;;17.20;91.00;;;16.07;78.21;97261.75;4980438;28;20477;-82
2021/08/01 07:25:44;;;;;;;8.57;7.77;;;17.30;87.60;;;16.21;79.45;97298.31;4972376;28;20483;-82
2021/08/01 07:28:13;;;;;;;9.70;8.90;;;17.20;88.20;;;15.74;78.46;97193.88;4987394;28;20449;-84
2021/08/01 07:30:42;;;;;;;8.07;7.47;;;17.30;88.00;;;16.08;76.88;97195.31;4978381;28;20560;-82
2021/08/01 07:33:09;;;;;;;8.73;7.80;;;17.50;86.80;;;16.73;76.78;97301.09;4968588;28;20472;-82
2021/08/01 07:35:37;;;;;;;8.80;8.07;;;17.70;86.10;;;16.79;78.11;97293.72;4955251;28;20453;-82
2021/08/01 07:38:05;;;;;;;8.10;7.40;;;17.80;86.70;;;16.79;75.57;97297.25;4990539;28;20452;-83
2021/08/01 07:40:34;;;;;;;9.20;8.30;;;17.70;82.90;;;17.30;75.61;97294.75;4990327;28;20563;-82
2021/08/01 07:43:05;;;;;;;8.53;7.73;;;18.10;84.30;;;17.60;74.81;97304.78;4981399;28;20492;-82
2021/08/01 07:45:35;;;;;;;8.20;7.17;;;18.50;83.50;;;17.85;73.58;97286.63;4963734;28;20449;-82
2021/08/01 07:48:03;;;;;;;8.40;7.80;;;18.80;81.80;;;18.04;72.76;97286.84;4989309;28;20488;-82
2021/08/01 07:50:31;;;;;;;7.70;7.00;;;19.10;80.20;;;17.77;73.50;97298.97;4975616;28;20566;-81
2021/08/01 07:52:58;;;;;;;7.47;6.77;;;18.80;78.80;;;17.60;71.37;97287.56;4954441;28;20486;-82
2021/08/01 07:55:27;;;;;;;6.77;6.20;;;18.90;76.20;;;17.68;72.82;97297.94;4962645;28;20452;-82
2021/08/01 07:57:56;;;;;;;7.60;6.87;;;18.80;76.90;;;17.37;72.57;97284.38;4962394;28;20521;-82
2021/08/01 08:00:25;;;;;;;8.23;7.10;;;18.70;76.00;;;17.76;73.17;97280.13;4961470;28;20956;-82
2021/08/01 08:02:55;;;;;;;8.07;6.13;;;18.90;78.10;;;18.20;70.82;97273.09;4974292;28;20462;-82
2021/08/01 08:05:22;;;;;;;6.47;5.90;;;19.10;76.60;;;18.55;69.96;97290.31;4958925;28;20441;-82
2021/08/01 08:07:49;;;;;;;6.97;6.47;;;19.50;76.10;;;18.46;68.89;97303.00;4964286;28;20501;-82
2021/08/01 08:10:23;;;;;;;7.80;7.20;;;19.50;72.90;;;18.43;70.26;97296.16;4981307;28;20453;-82
2021/08/01 08:12:50;;;;;;;7.57;6.90;;;19.70;74.00;;;18.43;70.39;97303.56;4979643;28;20465;-83
2021/08/01 08:15:19;;;;;;;6.07;5.67;;;19.50;73.80;;;18.31;69.57;97312.09;4983834;28;20445;-87
2021/08/01 08:17:46;;;;;;;5.60;5.10;;;19.60;72.30;;;18.15;70.91;97319.59;4982125;28;20452;-84
2021/08/01 08:20:19;;;;;;;6.50;5.90;;;19.40;73.10;;;17.83;70.29;97286.94;4960640;28;20477;-85
2021/08/01 08:22:49;;;;;;;7.27;6.60;;;19.20;72.60;;;17.76;73.65;97315.66;4958010;28;20468;-82
2021/08/01 08:25:18;;;;;;;7.63;7.03;;;19.00;75.10;;;17.42;72.25;97267.97;4977071;28;20456;-84
2021/08/01 08:27:48;;;;;;;6.30;5.70;;;18.90;75.30;;;17.61;72.03;97316.50;4977665;28;20499;-84
2021/08/01 08:30:16;;;;;;;6.20;5.70;;;18.70;74.60;;;17.32;71.82;97314.41;4970067;28;20481;-90
2021/08/01 08:32:43;;;;;;;5.90;5.50;;;18.20;75.00;;;17.28;72.26;97331.34;4965037;28;20480;-81
2021/08/01 08:35:11;;;;;;;6.20;5.60;;;18.10;74.90;;;17.77;70.12;97326.28;4967766;28;20483;-80
2021/08/01 08:37:47;;;;;;;6.33;5.83;;;18.50;74.20;;;17.78;71.25;97327.91;4982196;28;20457;-80
2021/08/01 08:40:15;;;;;;;5.70;5.30;;;18.50;74.70;;;18.32;68.45;97328.22;4969122;28;20444;-79
2021/08/01 08:42:45;;;;;;;7.27;6.10;;;19.00;73.00;;;18.91;68.94;97325.63;4971362;28;20449;-80
2021/08/01 08:45:15;;;;;;;5.83;5.33;;;19.50;73.50;;;19.65;66.64;97310.91;4973612;28;20500;-79
2021/08/01 08:47:45;;;;;;;6.23;5.73;;;20.30;72.20;;;19.67;65.06;97319.66;4974115;28;20477;-81
2021/08/01 08:50:14;;;;;;;4.90;4.50;;;20.70;68.70;;;20.02;64.09;97326.97;4974028;28;20468;-81
2021/08/01 08:52:44;;;;;;;5.13;4.73;;;21.00;67.70;;;19.76;64.35;97319.81;4972015;28;21069;-77
2021/08/01 08:55:13;;;;;;;6.30;5.50;;;20.80;67.10;;;19.40;65.82;97323.00;4973399;28;20453;-76
2021/08/01 08:57:46;;;;;;;6.00;5.10;;;20.30;67.80;;;19.33;67.20;97326.06;4973128;28;20941;-82
2021/08/01 09:00:14;;;;;;;5.67;5.10;;;20.30;69.50;;;19.47;63.27;97323.44;4971950;28;20434;-76
2021/08/01 09:02:41;;;;;;;5.33;4.80;;;20.40;66.10;;;20.16;60.92;97319.63;4976546;28;20536;-75
2021/08/01 09:05:10;;;;;;;5.67;5.27;;;21.00;65.00;;;20.84;62.63;97305.72;4974888;28;20453;-77
2021/08/01 09:07:39;;;;;;;5.87;4.40;;;21.60;67.00;;;21.17;59.24;97299.41;4986456;28;21055;-77
2021/08/01 09:10:08;;;;;;;5.83;4.30;;;22.10;63.70;;;20.98;60.16;97304.97;4972196;28;20461;-73
2021/08/01 09:12:42;;;;;;;6.87;6.27;;;22.20;63.00;;;19.80;62.32;97300.88;4974031;28;20552;-78
2021/08/01 09:15:12;;;;;;;5.70;5.20;;;21.30;63.20;;;19.29;64.39;97318.72;4958064;28;21121;-78
2021/08/01 09:17:41;;;;;;;5.00;4.70;;;20.40;64.50;;;19.65;63.68;97321.09;4976750;28;20496;-82
2021/08/01 09:20:17;;;;;;;6.53;5.93;;;20.70;64.50;;;20.32;63.12;97320.22;4980326;28;20472;-79
2021/08/01 09:23:05;;;;;;;17.63;6.23;;;21.30;65.40;;;19.87;62.80;97312.31;4972913;28;20446;-79
2021/08/01 09:25:34;;;;;;;5.00;4.60;;;21.10;65.10;;;19.70;63.54;97307.31;4969312;28;20450;-79
2021/08/01 09:28:14;;;;;;;5.20;4.60;;;21.00;64.20;;;19.35;64.06;97306.63;4966753;28;20511;-78
2021/08/01 09:30:49;;;;;;;5.90;5.10;;;20.50;64.00;;;19.42;63.37;97311.75;4969341;28;20564;-77
2021/08/01 09:33:31;;;;;;;4.60;4.20;;;20.50;64.20;;;19.03;64.33;97328.00;4966224;28;20466;-79
2021/08/01 09:36:10;;;;;;;5.17;4.67;;;20.10;64.30;;;19.06;65.11;97332.09;4964864;28;20468;-79
2021/08/01 09:38:51;;;;;;;5.93;5.00;;;20.10;64.90;;;19.35;64.75;97334.00;4968321;28;20457;-78
2021/08/01 09:41:20;;;;;;;5.70;5.03;;;20.30;65.00;;;19.90;63.81;97330.09;4967150;28;20541;-79
2021/08/01 09:43:51;;;;;;;6.00;5.40;;;20.60;65.60;;;20.18;63.40;97322.91;4974529;28;20844;-79
2021/08/01 09:46:20;;;;;;;4.50;4.10;;;21.10;65.40;;;19.70;60.36;97310.06;4967059;28;20547;-79
2021/08/01 09:48:47;;;;;;;5.40;4.40;;;21.00;62.30;;;20.17;60.19;97325.94;4968222;28;20905;-81
2021/08/01 09:51:15;;;;;;;4.30;4.00;;;21.10;62.40;;;20.20;60.17;97330.81;4969553;28;20453;-79
2021/08/01 09:53:43;;;;;;;4.57;4.17;;;21.40;62.20;;;21.27;58.85;97345.09;4968249;28;20457;-82
2021/08/01 09:56:16;;;;;;;3.13;2.93;;;21.90;62.70;;;21.64;56.17;97335.88;4964255;28;20456;-77
2021/08/01 09:58:44;;;;;;;3.37;3.17;;;22.60;60.50;;;21.82;54.54;97329.81;4964399;28;20454;-81
2021/08/01 10:01:14;;;;;;;4.20;3.90;;;23.00;59.30;;;21.15;57.49;97327.16;4961254;28;20573;-79
2021/08/01 10:03:43;;;;;;;4.33;4.03;;;22.50;60.00;;;21.55;55.92;97325.91;4964031;28;20543;-79
2021/08/01 10:06:13;;;;;;;4.23;3.83;;;22.70;59.50;;;21.71;56.09;97324.53;4965107;28;20476;-79
2021/08/01 10:08:42;;;;;;;3.57;3.27;;;23.00;59.40;;;21.92;54.22;97332.38;4970088;28;20519;-77
2021/08/01 10:11:13;;;;;;;3.43;3.13;;;23.10;58.70;;;21.16;56.16;97334.31;4969953;28;20521;-78
2021/08/01 10:13:41;;;;;;;3.93;3.37;;;22.50;59.10;;;21.01;55.82;97320.84;4974878;28;20455;-79
2021/08/01 10:16:10;;;;;;;3.60;3.30;;;22.20;58.70;;;21.75;55.02;97317.28;4969795;28;20780;-79
2021/08/01 10:18:39;;;;;;;3.00;2.80;;;22.70;59.20;;;20.99;56.57;97304.66;4966447;28;20464;-79
2021/08/01 10:21:07;;;;;;;3.73;3.43;;;22.60;58.60;;;20.53;57.38;97325.41;4974413;28;20489;-78
2021/08/01 10:23:41;;;;;;;3.23;2.93;;;21.90;59.10;;;20.45;59.05;97326.88;4970054;28;20479;-80
2021/08/01 10:26:10;;;;;;;3.57;3.27;;;21.50;59.70;;;20.05;59.11;97329.91;4971460;28;20464;-78
2021/08/01 10:28:42;;;;;;;2.90;2.70;;;21.10;59.70;;;20.34;58.02;97325.44;4976051;28;20561;-80